sensor_id;sensor_type;location;lat;lon;timestamp;pressure;altitude;pressure_sealevel;temperature;humidity
69848;BME280;57143;55.940;37.496;2022-07-11T00:01:48;98887.03;;;19.47;74.28
69848;BME280;57143;55.940;37.496;2022-07-11T00:04:15;98876.16;;;19.37;73.81
69848;BME280;57143;55.940;37.496;2022-07-11T00:06:42;98918.25;;;19.56;73.45
69848;BME280;57143;55.940;37.496;2022-07-11T00:09:09;98912.75;;;19.56;73.23
69848;BME280;57143;55.940;37.496;2022-07-11T00:11:36;98926.97;;;19.63;73.08
69848;BME280;57143;55.940;37.496;2022-07-11T00:14:03;98928.34;;;19.61;72.77
69848;BME280;57143;55.940;37.496;2022-07-11T00:16:30;98928.66;;;19.59;72.46
69848;BME280;57143;55.940;37.496;2022-07-11T00:18:59;98937.13;;;19.63;72.40
69848;BME280;57143;55.940;37.496;2022-07-11T00:21:26;98936.03;;;19.64;72.22
69848;BME280;57143;55.940;37.496;2022-07-11T00:23:53;98928.13;;;19.57;72.18
69848;BME280;57143;55.940;37.496;2022-07-11T00:26:20;98941.53;;;19.64;71.86
69848;BME280;57143;55.940;37.496;2022-07-11T00:28:47;98945.06;;;19.64;72.06
69848;BME280;57143;55.940;37.496;2022-07-11T00:31:14;98921.59;;;19.53;71.81
69848;BME280;57143;55.940;37.496;2022-07-11T00:33:41;98944.78;;;19.66;71.98
69848;BME280;57143;55.940;37.496;2022-07-11T00:36:09;98942.03;;;19.66;71.75
69848;BME280;57143;55.940;37.496;2022-07-11T00:38:37;98940.13;;;19.66;71.81
69848;BME280;57143;55.940;37.496;2022-07-11T00:41:04;98936.03;;;19.64;71.70
69848;BME280;57143;55.940;37.496;2022-07-11T00:43:31;98963.41;;;19.74;71.48
69848;BME280;57143;55.940;37.496;2022-07-11T00:45:59;98966.97;;;19.74;71.36
69848;BME280;57143;55.940;37.496;2022-07-11T00:48:27;98958.72;;;19.74;71.44
69848;BME280;57143;55.940;37.496;2022-07-11T00:50:54;98963.09;;;19.75;71.43
69848;BME280;57143;55.940;37.496;2022-07-11T00:53:23;98960.34;;;19.75;71.10
69848;BME280;57143;55.940;37.496;2022-07-11T00:55:51;98952.69;;;19.72;71.32
69848;BME280;57143;55.940;37.496;2022-07-11T00:58:37;98955.16;;;19.74;71.23
69848;BME280;57143;55.940;37.496;2022-07-11T01:01:04;98948.28;;;19.71;71.20
69848;BME280;57143;55.940;37.496;2022-07-11T01:03:34;98946.59;;;19.75;71.17
69848;BME280;57143;55.940;37.496;2022-07-11T01:06:05;98942.78;;;19.71;71.17
69848;BME280;57143;55.940;37.496;2022-07-11T01:08:34;98934.38;;;19.63;71.13
69848;BME280;57143;55.940;37.496;2022-07-11T01:11:02;98946.91;;;19.74;71.23
69848;BME280;57143;55.940;37.496;2022-07-11T01:13:30;98960.34;;;19.75;71.30
69848;BME280;57143;55.940;37.496;2022-07-11T01:16:08;98930.59;;;19.59;71.20
69848;BME280;57143;55.940;37.496;2022-07-11T01:18:35;98935.97;;;19.69;71.13
69848;BME280;57143;55.940;37.496;2022-07-11T01:21:09;98953.72;;;19.76;71.15
69848;BME280;57143;55.940;37.496;2022-07-11T01:23:38;98950.34;;;19.84;71.24
69848;BME280;57143;55.940;37.496;2022-07-11T01:26:05;98945.78;;;19.93;71.07
69848;BME280;57143;55.940;37.496;2022-07-11T01:28:32;98945.97;;;20.02;71.04
69848;BME280;57143;55.940;37.496;2022-07-11T01:30:59;98944.75;;;20.08;70.71
69848;BME280;57143;55.940;37.496;2022-07-11T01:33:26;98939.09;;;19.99;70.72
69848;BME280;57143;55.940;37.496;2022-07-11T01:35:53;98939.25;;;20.08;70.77
69848;BME280;57143;55.940;37.496;2022-07-11T01:38:20;98930.63;;;19.96;70.75
69848;BME280;57143;55.940;37.496;2022-07-11T01:40:48;98925.50;;;19.89;70.82
69848;BME280;57143;55.940;37.496;2022-07-11T01:43:15;98933.09;;;19.97;71.01
69848;BME280;57143;55.940;37.496;2022-07-11T01:45:42;98937.59;;;19.88;71.16
69848;BME280;57143;55.940;37.496;2022-07-11T01:48:09;98932.69;;;19.85;71.39
69848;BME280;57143;55.940;37.496;2022-07-11T01:50:36;98949.66;;;19.74;71.68
69848;BME280;57143;55.940;37.496;2022-07-11T01:53:03;98940.63;;;19.68;72.26
69848;BME280;57143;55.940;37.496;2022-07-11T01:55:30;98918.09;;;19.47;72.37
69848;BME280;57143;55.940;37.496;2022-07-11T01:57:59;98935.81;;;19.60;72.77
69848;BME280;57143;55.940;37.496;2022-07-11T02:00:26;98929.97;;;19.43;73.29
69848;BME280;57143;55.940;37.496;2022-07-11T02:02:53;98902.28;;;19.11;73.32
69848;BME280;57143;55.940;37.496;2022-07-11T02:05:20;98878.28;;;18.98;73.96
69848;BME280;57143;55.940;37.496;2022-07-11T02:07:47;98916.66;;;19.26;74.20
69848;BME280;57143;55.940;37.496;2022-07-11T02:10:31;98917.47;;;19.32;74.34
69848;BME280;57143;55.940;37.496;2022-07-11T02:13:00;98914.28;;;19.43;74.15
69848;BME280;57143;55.940;37.496;2022-07-11T02:15:27;98889.53;;;19.67;74.12
69848;BME280;57143;55.940;37.496;2022-07-11T02:17:54;98905.38;;;20.77;73.03
69848;BME280;57143;55.940;37.496;2022-07-11T02:20:22;98895.06;;;21.28;72.19
69848;BME280;57143;55.940;37.496;2022-07-11T02:22:49;98896.97;;;21.68;71.01
69848;BME280;57143;55.940;37.496;2022-07-11T02:25:16;98893.25;;;22.00;69.76
69848;BME280;57143;55.940;37.496;2022-07-11T02:27:44;98903.84;;;22.06;68.76
69848;BME280;57143;55.940;37.496;2022-07-11T02:30:12;98892.22;;;21.46;68.46
69848;BME280;57143;55.940;37.496;2022-07-11T02:32:39;98879.47;;;22.00;68.21
69848;BME280;57143;55.940;37.496;2022-07-11T02:35:07;98902.69;;;22.43;67.11
69848;BME280;57143;55.940;37.496;2022-07-11T02:37:34;98897.09;;;23.09;65.12
69848;BME280;57143;55.940;37.496;2022-07-11T02:40:01;98891.63;;;23.57;64.05
69848;BME280;57143;55.940;37.496;2022-07-11T02:42:28;98884.28;;;23.61;62.28
69848;BME280;57143;55.940;37.496;2022-07-11T02:44:56;98891.72;;;23.99;60.99
69848;BME280;57143;55.940;37.496;2022-07-11T02:47:25;98893.28;;;23.83;60.61
69848;BME280;57143;55.940;37.496;2022-07-11T02:49:52;98899.19;;;24.25;59.44
69848;BME280;57143;55.940;37.496;2022-07-11T02:52:19;98884.19;;;24.51;58.47
69848;BME280;57143;55.940;37.496;2022-07-11T02:54:46;98894.00;;;24.32;57.91
69848;BME280;57143;55.940;37.496;2022-07-11T02:57:13;98905.78;;;23.55;59.03
69848;BME280;57143;55.940;37.496;2022-07-11T02:59:40;98911.56;;;22.53;59.74
69848;BME280;57143;55.940;37.496;2022-07-11T03:02:07;98914.94;;;21.93;60.92
69848;BME280;57143;55.940;37.496;2022-07-11T03:04:35;98911.00;;;21.44;62.77
69848;BME280;57143;55.940;37.496;2022-07-11T03:07:02;98886.44;;;20.89;63.97
69848;BME280;57143;55.940;37.496;2022-07-11T03:09:30;98897.34;;;20.80;65.25
69848;BME280;57143;55.940;37.496;2022-07-11T03:12:00;98906.78;;;20.60;66.10
69848;BME280;57143;55.940;37.496;2022-07-11T03:14:28;98905.03;;;20.51;67.28
69848;BME280;57143;55.940;37.496;2022-07-11T03:16:55;98911.22;;;20.43;68.34
69848;BME280;57143;55.940;37.496;2022-07-11T03:19:22;98912.66;;;20.22;69.07
69848;BME280;57143;55.940;37.496;2022-07-11T03:21:50;98900.31;;;20.19;69.92
69848;BME280;57143;55.940;37.496;2022-07-11T03:24:17;98892.03;;;20.01;70.75
69848;BME280;57143;55.940;37.496;2022-07-11T03:26:44;98883.03;;;19.95;71.59
69848;BME280;57143;55.940;37.496;2022-07-11T03:29:11;98896.72;;;19.82;72.52
69848;BME280;57143;55.940;37.496;2022-07-11T03:31:38;98902.06;;;19.92;72.67
69848;BME280;57143;55.940;37.496;2022-07-11T03:34:05;98896.56;;;19.92;72.92
69848;BME280;57143;55.940;37.496;2022-07-11T03:36:32;98904.19;;;20.00;72.99
69848;BME280;57143;55.940;37.496;2022-07-11T03:39:01;98904.41;;;20.03;72.99
69848;BME280;57143;55.940;37.496;2022-07-11T03:41:28;98899.38;;;20.05;72.89
69848;BME280;57143;55.940;37.496;2022-07-11T03:43:55;98901.88;;;20.07;72.58
69848;BME280;57143;55.940;37.496;2022-07-11T03:46:22;98901.78;;;20.30;72.93
69848;BME280;57143;55.940;37.496;2022-07-11T03:48:49;98900.69;;;20.45;72.45
69848;BME280;57143;55.940;37.496;2022-07-11T03:51:16;98893.84;;;20.75;72.12
69848;BME280;57143;55.940;37.496;2022-07-11T03:53:43;98890.41;;;21.91;70.52
69848;BME280;57143;55.940;37.496;2022-07-11T03:56:11;98882.59;;;22.73;68.27
69848;BME280;57143;55.940;37.496;2022-07-11T03:58:38;98900.41;;;23.59;66.61
69848;BME280;57143;55.940;37.496;2022-07-11T04:01:05;98898.38;;;23.34;65.45
69848;BME280;57143;55.940;37.496;2022-07-11T04:03:32;98879.69;;;23.00;64.58
69848;BME280;57143;55.940;37.496;2022-07-11T04:05:59;98891.38;;;23.28;63.72
69848;BME280;57143;55.940;37.496;2022-07-11T04:08:27;98870.41;;;23.05;62.53
69848;BME280;57143;55.940;37.496;2022-07-11T04:10:54;98894.53;;;22.82;62.17
69848;BME280;57143;55.940;37.496;2022-07-11T04:13:22;98858.13;;;23.84;61.04
69848;BME280;57143;55.940;37.496;2022-07-11T04:15:49;98889.28;;;25.21;58.66
69848;BME280;57143;55.940;37.496;2022-07-11T04:18:16;98878.84;;;25.56;56.45
69848;BME280;57143;55.940;37.496;2022-07-11T04:20:43;98893.59;;;26.18;54.35
69848;BME280;57143;55.940;37.496;2022-07-11T04:23:10;98897.94;;;26.69;52.16
69848;BME280;57143;55.940;37.496;2022-07-11T04:25:37;98894.34;;;26.27;51.32
69848;BME280;57143;55.940;37.496;2022-07-11T04:28:04;98885.19;;;27.24;50.44
69848;BME280;57143;55.940;37.496;2022-07-11T04:30:32;98872.78;;;27.22;49.35
69848;BME280;57143;55.940;37.496;2022-07-11T04:33:00;98892.16;;;26.53;49.00
69848;BME280;57143;55.940;37.496;2022-07-11T04:35:27;98893.78;;;26.75;48.79
69848;BME280;57143;55.940;37.496;2022-07-11T04:37:56;98884.78;;;26.90;49.11
69848;BME280;57143;55.940;37.496;2022-07-11T04:40:23;98865.97;;;26.21;49.11
69848;BME280;57143;55.940;37.496;2022-07-11T04:42:50;98881.84;;;26.21;49.96
69848;BME280;57143;55.940;37.496;2022-07-11T04:45:18;98873.44;;;26.95;49.17
69848;BME280;57143;55.940;37.496;2022-07-11T04:47:47;98886.97;;;27.53;48.05
69848;BME280;57143;55.940;37.496;2022-07-11T04:50:14;98885.56;;;27.71;47.54
69848;BME280;57143;55.940;37.496;2022-07-11T04:52:41;98872.19;;;27.89;46.86
69848;BME280;57143;55.940;37.496;2022-07-11T04:55:08;98861.94;;;28.17;45.99
69848;BME280;57143;55.940;37.496;2022-07-11T04:57:35;98876.81;;;28.09;45.30
69848;BME280;57143;55.940;37.496;2022-07-11T05:00:06;98868.06;;;27.59;45.84
69848;BME280;57143;55.940;37.496;2022-07-11T05:02:33;98868.16;;;27.98;46.11
69848;BME280;57143;55.940;37.496;2022-07-11T05:05:01;98868.31;;;28.17;45.58
69848;BME280;57143;55.940;37.496;2022-07-11T05:07:28;98865.53;;;28.17;45.44
69848;BME280;57143;55.940;37.496;2022-07-11T05:09:55;98867.13;;;27.67;46.16
69848;BME280;57143;55.940;37.496;2022-07-11T05:12:23;98830.88;;;28.30;45.54
69848;BME280;57143;55.940;37.496;2022-07-11T05:14:50;98854.38;;;28.57;44.63
69848;BME280;57143;55.940;37.496;2022-07-11T05:17:17;98865.06;;;28.98;43.88
69848;BME280;57143;55.940;37.496;2022-07-11T05:19:44;98869.53;;;28.87;43.33
69848;BME280;57143;55.940;37.496;2022-07-11T05:22:12;98867.13;;;29.01;43.65
69848;BME280;57143;55.940;37.496;2022-07-11T05:24:39;98855.69;;;29.06;43.17
69848;BME280;57143;55.940;37.496;2022-07-11T05:27:06;98861.13;;;28.72;43.64
69848;BME280;57143;55.940;37.496;2022-07-11T05:29:33;98860.69;;;29.13;43.38
69848;BME280;57143;55.940;37.496;2022-07-11T05:32:00;98841.06;;;29.09;42.88
69848;BME280;57143;55.940;37.496;2022-07-11T05:34:27;98834.84;;;29.16;42.91
69848;BME280;57143;55.940;37.496;2022-07-11T05:36:54;98861.44;;;28.98;43.26
69848;BME280;57143;55.940;37.496;2022-07-11T05:39:23;98820.56;;;28.47;43.52
69848;BME280;57143;55.940;37.496;2022-07-11T05:41:50;98828.16;;;28.06;44.08
69848;BME280;57143;55.940;37.496;2022-07-11T05:44:17;98828.88;;;28.03;44.95
69848;BME280;57143;55.940;37.496;2022-07-11T05:46:44;98865.63;;;27.69;45.51
69848;BME280;57143;55.940;37.496;2022-07-11T05:49:12;98852.97;;;27.60;46.21
69848;BME280;57143;55.940;37.496;2022-07-11T05:51:42;98838.00;;;27.64;45.54
69848;BME280;57143;55.940;37.496;2022-07-11T05:54:09;98810.50;;;27.75;45.33
69848;BME280;57143;55.940;37.496;2022-07-11T05:56:37;98823.47;;;27.95;45.14
69848;BME280;57143;55.940;37.496;2022-07-11T05:59:05;98841.16;;;28.54;45.07
69848;BME280;57143;55.940;37.496;2022-07-11T06:01:32;98847.47;;;28.82;43.84
69848;BME280;57143;55.940;37.496;2022-07-11T06:03:59;98843.09;;;29.75;42.81
69848;BME280;57143;55.940;37.496;2022-07-11T06:06:27;98846.72;;;29.60;42.60
69848;BME280;57143;55.940;37.496;2022-07-11T06:08:54;98837.09;;;30.11;41.40
69848;BME280;57143;55.940;37.496;2022-07-11T06:11:21;98828.97;;;30.40;40.08
69848;BME280;57143;55.940;37.496;2022-07-11T06:13:49;98842.47;;;30.77;39.82
69848;BME280;57143;55.940;37.496;2022-07-11T06:16:17;98837.50;;;30.67;39.45
69848;BME280;57143;55.940;37.496;2022-07-11T06:18:45;98841.69;;;30.57;39.78
69848;BME280;57143;55.940;37.496;2022-07-11T06:21:12;98811.53;;;30.28;39.29
69848;BME280;57143;55.940;37.496;2022-07-11T06:23:39;98828.59;;;30.61;39.23
69848;BME280;57143;55.940;37.496;2022-07-11T06:26:08;98823.38;;;30.59;39.64
69848;BME280;57143;55.940;37.496;2022-07-11T06:28:37;98838.00;;;30.34;38.77
69848;BME280;57143;55.940;37.496;2022-07-11T06:31:06;98839.31;;;30.21;39.43
69848;BME280;57143;55.940;37.496;2022-07-11T06:33:34;98815.56;;;30.11;39.53
69848;BME280;57143;55.940;37.496;2022-07-11T06:36:01;98829.75;;;30.22;40.02
69848;BME280;57143;55.940;37.496;2022-07-11T06:38:28;98820.06;;;30.54;39.21
69848;BME280;57143;55.940;37.496;2022-07-11T06:40:56;98824.97;;;30.60;38.52
69848;BME280;57143;55.940;37.496;2022-07-11T06:43:23;98822.72;;;30.28;39.20
69848;BME280;57143;55.940;37.496;2022-07-11T06:45:50;98799.38;;;30.39;38.53
69848;BME280;57143;55.940;37.496;2022-07-11T06:48:19;98810.25;;;30.44;38.78
69848;BME280;57143;55.940;37.496;2022-07-11T06:50:47;98799.75;;;30.38;38.71
69848;BME280;57143;55.940;37.496;2022-07-11T06:53:14;98826.97;;;30.41;38.89
69848;BME280;57143;55.940;37.496;2022-07-11T06:55:41;98807.53;;;30.48;38.39
69848;BME280;57143;55.940;37.496;2022-07-11T06:58:09;98815.03;;;30.63;38.48
69848;BME280;57143;55.940;37.496;2022-07-11T07:00:37;98814.72;;;30.26;39.02
69848;BME280;57143;55.940;37.496;2022-07-11T07:03:04;98821.34;;;30.79;38.28
69848;BME280;57143;55.940;37.496;2022-07-11T07:05:33;98808.97;;;30.38;38.15
69848;BME280;57143;55.940;37.496;2022-07-11T07:08:00;98818.41;;;29.61;39.57
69848;BME280;57143;55.940;37.496;2022-07-11T07:10:27;98812.53;;;30.20;39.91
69848;BME280;57143;55.940;37.496;2022-07-11T07:12:54;98796.63;;;30.05;39.92
69848;BME280;57143;55.940;37.496;2022-07-11T07:15:21;98772.22;;;30.21;39.67
69848;BME280;57143;55.940;37.496;2022-07-11T07:17:48;98799.22;;;30.32;39.12
69848;BME280;57143;55.940;37.496;2022-07-11T07:20:15;98764.44;;;30.30;38.85
69848;BME280;57143;55.940;37.496;2022-07-11T07:22:44;98796.47;;;31.19;37.75
69848;BME280;57143;55.940;37.496;2022-07-11T07:25:11;98799.22;;;30.74;37.62
69848;BME280;57143;55.940;37.496;2022-07-11T07:27:38;98792.19;;;31.03;37.64
69848;BME280;57143;55.940;37.496;2022-07-11T07:30:07;98791.88;;;30.43;37.72
69848;BME280;57143;55.940;37.496;2022-07-11T07:32:34;98794.38;;;30.29;38.87
69848;BME280;57143;55.940;37.496;2022-07-11T07:35:01;98756.44;;;30.28;38.79
69848;BME280;57143;55.940;37.496;2022-07-11T07:37:28;98762.81;;;30.29;39.95
69848;BME280;57143;55.940;37.496;2022-07-11T07:39:56;98794.78;;;30.70;39.92
69848;BME280;57143;55.940;37.496;2022-07-11T07:42:23;98777.59;;;30.29;39.71
69848;BME280;57143;55.940;37.496;2022-07-11T07:44:50;98767.88;;;30.42;38.51
69848;BME280;57143;55.940;37.496;2022-07-11T07:47:17;98786.00;;;30.29;38.55
69848;BME280;57143;55.940;37.496;2022-07-11T07:49:46;98782.13;;;30.18;38.40
69848;BME280;57143;55.940;37.496;2022-07-11T07:52:13;98778.03;;;29.93;38.83
69848;BME280;57143;55.940;37.496;2022-07-11T07:54:40;98783.78;;;30.38;38.39
69848;BME280;57143;55.940;37.496;2022-07-11T07:57:08;98781.50;;;30.06;38.76
69848;BME280;57143;55.940;37.496;2022-07-11T07:59:36;98770.69;;;29.50;39.28
69848;BME280;57143;55.940;37.496;2022-07-11T08:02:03;98757.34;;;29.79;39.22
69848;BME280;57143;55.940;37.496;2022-07-11T08:04:29;98767.66;;;29.94;39.38
69848;BME280;57143;55.940;37.496;2022-07-11T08:06:56;98768.81;;;29.93;39.26
69848;BME280;57143;55.940;37.496;2022-07-11T08:09:25;98772.00;;;30.10;38.80
69848;BME280;57143;55.940;37.496;2022-07-11T08:11:52;98755.16;;;30.07;38.69
69848;BME280;57143;55.940;37.496;2022-07-11T08:14:21;98777.06;;;30.43;38.43
69848;BME280;57143;55.940;37.496;2022-07-11T08:16:48;98771.44;;;30.62;38.47
69848;BME280;57143;55.940;37.496;2022-07-11T08:19:15;98775.28;;;30.96;37.84
69848;BME280;57143;55.940;37.496;2022-07-11T08:21:42;98764.72;;;30.86;37.43
69848;BME280;57143;55.940;37.496;2022-07-11T08:24:09;98772.00;;;31.39;36.97
69848;BME280;57143;55.940;37.496;2022-07-11T08:26:36;98767.31;;;31.24;37.44
69848;BME280;57143;55.940;37.496;2022-07-11T08:29:04;98761.00;;;31.27;36.71
69848;BME280;57143;55.940;37.496;2022-07-11T08:31:33;98761.25;;;31.44;36.26
69848;BME280;57143;55.940;37.496;2022-07-11T08:34:02;98746.06;;;32.01;35.34
69848;BME280;57143;55.940;37.496;2022-07-11T08:36:29;98757.25;;;31.98;35.07
69848;BME280;57143;55.940;37.496;2022-07-11T08:39:00;98761.88;;;31.87;35.62
69848;BME280;57143;55.940;37.496;2022-07-11T08:41:27;98749.56;;;31.65;35.30
69848;BME280;57143;55.940;37.496;2022-07-11T08:43:55;98735.69;;;31.76;34.94
69848;BME280;57143;55.940;37.496;2022-07-11T08:46:22;98760.13;;;31.75;35.16
69848;BME280;57143;55.940;37.496;2022-07-11T08:48:53;98744.22;;;31.53;35.29
69848;BME280;57143;55.940;37.496;2022-07-11T08:51:21;98747.13;;;31.63;35.37
69848;BME280;57143;55.940;37.496;2022-07-11T08:53:50;98712.56;;;31.00;36.13
69848;BME280;57143;55.940;37.496;2022-07-11T08:56:18;98746.59;;;30.80;36.44
69848;BME280;57143;55.940;37.496;2022-07-11T08:58:48;98733.75;;;31.01;36.12
69848;BME280;57143;55.940;37.496;2022-07-11T09:01:17;98749.44;;;30.60;36.27
69848;BME280;57143;55.940;37.496;2022-07-11T09:03:44;98734.13;;;30.77;36.37
69848;BME280;57143;55.940;37.496;2022-07-11T09:06:13;98741.72;;;30.77;37.13
69848;BME280;57143;55.940;37.496;2022-07-11T09:08:40;98743.88;;;30.41;36.79
69848;BME280;57143;55.940;37.496;2022-07-11T09:11:08;98740.31;;;30.03;37.75
69848;BME280;57143;55.940;37.496;2022-07-11T09:13:36;98750.22;;;30.00;38.38
69848;BME280;57143;55.940;37.496;2022-07-11T09:16:04;98748.31;;;30.23;38.34
69848;BME280;57143;55.940;37.496;2022-07-11T09:18:34;98742.88;;;30.30;38.70
69848;BME280;57143;55.940;37.496;2022-07-11T09:21:03;98655.81;;;29.90;37.89
69848;BME280;57143;55.940;37.496;2022-07-11T09:23:50;98740.09;;;30.30;37.56
69848;BME280;57143;55.940;37.496;2022-07-11T09:26:50;98746.03;;;30.29;37.22
69848;BME280;57143;55.940;37.496;2022-07-11T09:29:18;98737.66;;;30.51;37.65
69848;BME280;57143;55.940;37.496;2022-07-11T09:31:47;98725.91;;;30.65;37.00
69848;BME280;57143;55.940;37.496;2022-07-11T09:34:15;98732.34;;;30.66;36.47
69848;BME280;57143;55.940;37.496;2022-07-11T09:36:44;98722.03;;;30.70;36.58
69848;BME280;57143;55.940;37.496;2022-07-11T09:39:15;98721.25;;;30.73;36.16
69848;BME280;57143;55.940;37.496;2022-07-11T09:41:43;98713.25;;;30.71;35.88
69848;BME280;57143;55.940;37.496;2022-07-11T09:44:15;98721.75;;;30.33;35.47
69848;BME280;57143;55.940;37.496;2022-07-11T09:46:44;98711.25;;;30.26;35.92
69848;BME280;57143;55.940;37.496;2022-07-11T09:49:12;98705.72;;;30.11;35.68
69848;BME280;57143;55.940;37.496;2022-07-11T09:51:39;98693.59;;;29.84;36.22
69848;BME280;57143;55.940;37.496;2022-07-11T09:54:07;98712.41;;;30.06;36.51
69848;BME280;57143;55.940;37.496;2022-07-11T09:56:39;98714.78;;;30.04;36.43
69848;BME280;57143;55.940;37.496;2022-07-11T09:59:08;98696.00;;;30.24;34.93
69848;BME280;57143;55.940;37.496;2022-07-11T10:01:36;98649.78;;;29.88;34.99
69848;BME280;57143;55.940;37.496;2022-07-11T10:04:05;98669.75;;;30.09;33.85
69848;BME280;57143;55.940;37.496;2022-07-11T10:06:32;98676.88;;;30.07;34.18
69848;BME280;57143;55.940;37.496;2022-07-11T10:09:00;98703.50;;;30.20;33.76
69848;BME280;57143;55.940;37.496;2022-07-11T10:11:28;98698.94;;;30.12;34.22
69848;BME280;57143;55.940;37.496;2022-07-11T10:13:58;98684.50;;;30.10;34.03
69848;BME280;57143;55.940;37.496;2022-07-11T10:16:34;98678.13;;;30.09;33.63
69848;BME280;57143;55.940;37.496;2022-07-11T10:19:22;98666.59;;;30.11;33.85
69848;BME280;57143;55.940;37.496;2022-07-11T10:21:59;98682.78;;;30.43;33.57
69848;BME280;57143;55.940;37.496;2022-07-11T10:24:34;98669.97;;;30.65;33.58
69848;BME280;57143;55.940;37.496;2022-07-11T10:27:07;98628.66;;;30.32;33.62
69848;BME280;57143;55.940;37.496;2022-07-11T10:29:41;98669.34;;;30.75;33.30
69848;BME280;57143;55.940;37.496;2022-07-11T10:32:12;98674.56;;;30.77;33.21
69848;BME280;57143;55.940;37.496;2022-07-11T10:34:39;98661.38;;;30.77;32.56
69848;BME280;57143;55.940;37.496;2022-07-11T10:37:07;98681.38;;;31.02;31.44
69848;BME280;57143;55.940;37.496;2022-07-11T10:39:35;98644.81;;;30.91;31.11
69848;BME280;57143;55.940;37.496;2022-07-11T10:42:03;98683.41;;;30.79;30.51
69848;BME280;57143;55.940;37.496;2022-07-11T10:44:50;98676.94;;;30.75;31.02
69848;BME280;57143;55.940;37.496;2022-07-11T10:47:34;98678.47;;;30.72;30.98
69848;BME280;57143;55.940;37.496;2022-07-11T10:50:14;98677.94;;;30.86;31.00
69848;BME280;57143;55.940;37.496;2022-07-11T10:52:48;98676.50;;;30.95;31.24
69848;BME280;57143;55.940;37.496;2022-07-11T10:55:35;98678.75;;;31.12;31.32
69848;BME280;57143;55.940;37.496;2022-07-11T10:58:08;98672.53;;;31.26;31.73
69848;BME280;57143;55.940;37.496;2022-07-11T11:00:39;98654.03;;;30.92;30.43
69848;BME280;57143;55.940;37.496;2022-07-11T11:03:07;98614.06;;;30.69;30.58
69848;BME280;57143;55.940;37.496;2022-07-11T11:05:48;98664.25;;;31.07;30.77
69848;BME280;57143;55.940;37.496;2022-07-11T11:08:41;98668.47;;;30.94;30.45
69848;BME280;57143;55.940;37.496;2022-07-11T11:11:36;98662.50;;;30.95;30.82
69848;BME280;57143;55.940;37.496;2022-07-11T11:14:22;98643.72;;;30.96;30.94
69848;BME280;57143;55.940;37.496;2022-07-11T11:16:53;98665.63;;;30.90;31.09
69848;BME280;57143;55.940;37.496;2022-07-11T11:19:51;98653.88;;;30.81;31.14
69848;BME280;57143;55.940;37.496;2022-07-11T11:22:20;98647.69;;;30.72;31.11
69848;BME280;57143;55.940;37.496;2022-07-11T11:24:50;98653.88;;;30.81;31.34
69848;BME280;57143;55.940;37.496;2022-07-11T11:27:18;98664.25;;;30.81;31.78
69848;BME280;57143;55.940;37.496;2022-07-11T11:29:49;98676.75;;;30.87;31.56
69848;BME280;57143;55.940;37.496;2022-07-11T11:32:19;98652.84;;;30.93;31.83
69848;BME280;57143;55.940;37.496;2022-07-11T11:34:46;98660.50;;;30.96;31.24
69848;BME280;57143;55.940;37.496;2022-07-11T11:37:16;98661.88;;;31.09;30.18
69848;BME280;57143;55.940;37.496;2022-07-11T11:39:44;98684.88;;;30.95;30.11
69848;BME280;57143;55.940;37.496;2022-07-11T11:42:14;98650.69;;;31.09;29.72
69848;BME280;57143;55.940;37.496;2022-07-11T11:45:03;98652.22;;;31.03;30.01
69848;BME280;57143;55.940;37.496;2022-07-11T11:47:36;98639.38;;;31.02;29.99
69848;BME280;57143;55.940;37.496;2022-07-11T11:50:03;98644.38;;;31.15;29.87
69848;BME280;57143;55.940;37.496;2022-07-11T11:52:32;98646.53;;;31.25;29.96
69848;BME280;57143;55.940;37.496;2022-07-11T11:54:59;98631.72;;;31.25;29.76
69848;BME280;57143;55.940;37.496;2022-07-11T11:57:27;98650.69;;;31.35;29.11
69848;BME280;57143;55.940;37.496;2022-07-11T11:59:55;98649.59;;;31.43;29.32
69848;BME280;57143;55.940;37.496;2022-07-11T12:02:24;98603.19;;;31.16;29.35
69848;BME280;57143;55.940;37.496;2022-07-11T12:04:53;98635.91;;;31.67;29.22
69848;BME280;57143;55.940;37.496;2022-07-11T12:07:24;98612.94;;;31.55;28.68
69848;BME280;57143;55.940;37.496;2022-07-11T12:09:52;98623.03;;;31.63;28.64
69848;BME280;57143;55.940;37.496;2022-07-11T12:12:24;98642.44;;;31.79;28.40
69848;BME280;57143;55.940;37.496;2022-07-11T12:15:24;98632.06;;;31.83;27.81
69848;BME280;57143;55.940;37.496;2022-07-11T12:17:53;98637.25;;;31.81;27.84
69848;BME280;57143;55.940;37.496;2022-07-11T12:20:39;98614.97;;;31.58;27.98
69848;BME280;57143;55.940;37.496;2022-07-11T12:23:08;98646.81;;;31.76;27.93
69848;BME280;57143;55.940;37.496;2022-07-11T12:25:35;98637.03;;;31.93;27.53
69848;BME280;57143;55.940;37.496;2022-07-11T12:28:04;98623.81;;;31.93;26.99
69848;BME280;57143;55.940;37.496;2022-07-11T12:30:33;98642.25;;;31.94;26.98
69848;BME280;57143;55.940;37.496;2022-07-11T12:33:05;98637.13;;;32.03;27.66
69848;BME280;57143;55.940;37.496;2022-07-11T12:35:32;98650.09;;;32.15;27.65
69848;BME280;57143;55.940;37.496;2022-07-11T12:38:00;98633.56;;;32.06;27.00
69848;BME280;57143;55.940;37.496;2022-07-11T12:40:28;98643.19;;;32.09;27.21
69848;BME280;57143;55.940;37.496;2022-07-11T12:42:55;98640.81;;;32.11;26.99
69848;BME280;57143;55.940;37.496;2022-07-11T12:45:22;98624.88;;;32.18;26.95
69848;BME280;57143;55.940;37.496;2022-07-11T12:47:49;98642.09;;;32.17;26.75
69848;BME280;57143;55.940;37.496;2022-07-11T12:50:18;98654.13;;;32.21;27.28
69848;BME280;57143;55.940;37.496;2022-07-11T12:52:47;98629.31;;;32.23;26.74
69848;BME280;57143;55.940;37.496;2022-07-11T12:55:24;98628.47;;;32.19;26.73
69848;BME280;57143;55.940;37.496;2022-07-11T12:58:06;98636.25;;;32.36;26.80
69848;BME280;57143;55.940;37.496;2022-07-11T13:00:34;98638.97;;;32.25;26.85